sensor_id;sensor_type;location;lat;lon;timestamp;pressure;altitude;pressure_sealevel;temperature;humidity
20710;BME280;10516;51.518;9.864;2022-12-24T00:02:10;97629.84;;;7.20;100.00
20710;BME280;10516;51.518;9.864;2022-12-24T00:04:35;97640.81;;;7.39;100.00
20710;BME280;10516;51.518;9.864;2022-12-24T00:07:01;97641.34;;;7.41;100.00
20710;BME280;10516;51.518;9.864;2022-12-24T00:09:26;97646.44;;;7.47;100.00
20710;BME280;10516;51.518;9.864;2022-12-24T00:11:51;97646.66;;;7.36;100.00
20710;BME280;10516;51.518;9.864;2022-12-24T00:14:17;97657.72;;;7.28;100.00
20710;BME280;10516;51.518;9.864;2022-12-24T00:16:42;97655.66;;;7.35;100.00
20710;BME280;10516;51.518;9.864;2022-12-24T00:19:07;97658.81;;;7.27;100.00
20710;BME280;10516;51.518;9.864;2022-12-24T00:21:33;97657.72;;;7.23;100.00
20710;BME280;10516;51.518;9.864;2022-12-24T00:23:58;97660.59;;;7.16;100.00
20710;BME280;10516;51.518;9.864;2022-12-24T00:26:23;97664.03;;;7.17;100.00
20710;BME280;10516;51.518;9.864;2022-12-24T00:28:49;97666.22;;;7.25;100.00
20710;BME280;10516;51.518;9.864;2022-12-24T00:31:16;97663.56;;;7.25;100.00
20710;BME280;10516;51.518;9.864;2022-12-24T00:33:43;97662.94;;;7.13;100.00
20710;BME280;10516;51.518;9.864;2022-12-24T00:36:09;97669.88;;;7.19;100.00
20710;BME280;10516;51.518;9.864;2022-12-24T00:38:34;97670.78;;;7.29;100.00
20710;BME280;10516;51.518;9.864;2022-12-24T00:41:01;97676.25;;;7.18;100.00
20710;BME280;10516;51.518;9.864;2022-12-24T00:43:28;97679.50;;;7.25;100.00
20710;BME280;10516;51.518;9.864;2022-12-24T00:45:54;97675.94;;;7.14;100.00
20710;BME280;10516;51.518;9.864;2022-12-24T00:48:19;97676.75;;;7.15;100.00
20710;BME280;10516;51.518;9.864;2022-12-24T00:50:45;97675.94;;;7.09;100.00
20710;BME280;10516;51.518;9.864;2022-12-24T00:53:10;97675.94;;;7.14;100.00
20710;BME280;10516;51.518;9.864;2022-12-24T00:55:35;97689.31;;;7.24;100.00
20710;BME280;10516;51.518;9.864;2022-12-24T00:58:01;97689.47;;;7.13;100.00
20710;BME280;10516;51.518;9.864;2022-12-24T01:00:26;97696.41;;;7.14;100.00
20710;BME280;10516;51.518;9.864;2022-12-24T01:02:51;97703.28;;;7.15;100.00
20710;BME280;10516;51.518;9.864;2022-12-24T01:05:17;97696.09;;;7.10;100.00
20710;BME280;10516;51.518;9.864;2022-12-24T01:07:45;97702.25;;;7.16;100.00
20710;BME280;10516;51.518;9.864;2022-12-24T01:10:13;97711.03;;;7.21;100.00
20710;BME280;10516;51.518;9.864;2022-12-24T01:12:40;97718.44;;;7.19;100.00
20710;BME280;10516;51.518;9.864;2022-12-24T01:15:07;97722.63;;;7.10;100.00
20710;BME280;10516;51.518;9.864;2022-12-24T01:17:34;97729.59;;;7.16;100.00
20710;BME280;10516;51.518;9.864;2022-12-24T01:19:59;97721.84;;;7.10;100.00
20710;BME280;10516;51.518;9.864;2022-12-24T01:22:25;97731.94;;;7.13;100.00
20710;BME280;10516;51.518;9.864;2022-12-24T01:24:50;97740.91;;;7.07;100.00
20710;BME280;10516;51.518;9.864;2022-12-24T01:27:16;97757.44;;;7.14;100.00
20710;BME280;10516;51.518;9.864;2022-12-24T01:29:41;97744.69;;;7.16;100.00
20710;BME280;10516;51.518;9.864;2022-12-24T01:32:06;97745.50;;;7.16;100.00
20710;BME280;10516;51.518;9.864;2022-12-24T01:34:32;97745.47;;;7.11;100.00
20710;BME280;10516;51.518;9.864;2022-12-24T01:36:57;97760.84;;;7.09;100.00
20710;BME280;10516;51.518;9.864;2022-12-24T01:39:22;97763.56;;;7.19;100.00
20710;BME280;10516;51.518;9.864;2022-12-24T01:41:48;97759.53;;;7.12;100.00
20710;BME280;10516;51.518;9.864;2022-12-24T01:44:34;97768.28;;;7.12;100.00
20710;BME280;10516;51.518;9.864;2022-12-24T01:47:05;97771.94;;;7.06;100.00
20710;BME280;10516;51.518;9.864;2022-12-24T01:49:32;97774.25;;;6.98;100.00
20710;BME280;10516;51.518;9.864;2022-12-24T01:52:03;97785.94;;;6.97;100.00
20710;BME280;10516;51.518;9.864;2022-12-24T01:54:32;97779.06;;;7.01;100.00
20710;BME280;10516;51.518;9.864;2022-12-24T01:57:02;97787.78;;;7.01;100.00
20710;BME280;10516;51.518;9.864;2022-12-24T01:59:28;97782.22;;;6.98;100.00
20710;BME280;10516;51.518;9.864;2022-12-24T02:01:54;97793.97;;;7.07;100.00
20710;BME280;10516;51.518;9.864;2022-12-24T02:04:53;97807.09;;;7.18;99.93
20710;BME280;10516;51.518;9.864;2022-12-24T02:07:20;97811.72;;;7.06;100.00
20710;BME280;10516;51.518;9.864;2022-12-24T02:09:46;97815.75;;;7.09;100.00
20710;BME280;10516;51.518;9.864;2022-12-24T02:12:13;97815.13;;;7.02;100.00
20710;BME280;10516;51.518;9.864;2022-12-24T02:14:39;97813.84;;;7.04;100.00
20710;BME280;10516;51.518;9.864;2022-12-24T02:17:18;97818.88;;;7.06;99.82
20710;BME280;10516;51.518;9.864;2022-12-24T02:22:31;97839.75;;;6.97;100.00
20710;BME280;10516;51.518;9.864;2022-12-24T02:28:00;97853.03;;;6.97;100.00
20710;BME280;10516;51.518;9.864;2022-12-24T02:30:51;97857.75;;;6.90;99.73
20710;BME280;10516;51.518;9.864;2022-12-24T02:39:05;97863.09;;;6.95;100.00
20710;BME280;10516;51.518;9.864;2022-12-24T02:41:36;97866.84;;;6.99;100.00
20710;BME280;10516;51.518;9.864;2022-12-24T02:44:26;97868.91;;;6.92;99.24
20710;BME280;10516;51.518;9.864;2022-12-24T02:46:53;97876.72;;;6.82;99.88
20710;BME280;10516;51.518;9.864;2022-12-24T02:49:19;97865.91;;;6.84;100.00
20710;BME280;10516;51.518;9.864;2022-12-24T02:51:45;97880.47;;;6.86;100.00
20710;BME280;10516;51.518;9.864;2022-12-24T02:54:10;97882.19;;;6.97;99.59
20710;BME280;10516;51.518;9.864;2022-12-24T03:00:14;97885.31;;;6.89;100.00
20710;BME280;10516;51.518;9.864;2022-12-24T03:05:19;97895.81;;;6.79;99.93
20710;BME280;10516;51.518;9.864;2022-12-24T03:10:55;97903.75;;;6.79;100.00
20710;BME280;10516;51.518;9.864;2022-12-24T03:13:22;97909.91;;;6.85;100.00
20710;BME280;10516;51.518;9.864;2022-12-24T03:15:49;97913.94;;;6.87;100.00
20710;BME280;10516;51.518;9.864;2022-12-24T03:18:19;97923.25;;;6.90;100.00
20710;BME280;10516;51.518;9.864;2022-12-24T03:20:49;97934.66;;;6.90;100.00
20710;BME280;10516;51.518;9.864;2022-12-24T03:23:17;97942.84;;;6.89;99.91
20710;BME280;10516;51.518;9.864;2022-12-24T03:25:43;97937.25;;;6.85;99.46
20710;BME280;10516;51.518;9.864;2022-12-24T03:28:11;97947.94;;;6.90;99.73
20710;BME280;10516;51.518;9.864;2022-12-24T03:30:40;97953.09;;;6.80;100.00
20710;BME280;10516;51.518;9.864;2022-12-24T03:33:05;97958.38;;;6.80;100.00
20710;BME280;10516;51.518;9.864;2022-12-24T03:35:31;97964.19;;;6.77;100.00
20710;BME280;10516;51.518;9.864;2022-12-24T03:37:56;97969.16;;;6.73;99.69
20710;BME280;10516;51.518;9.864;2022-12-24T03:40:21;97965.88;;;6.66;99.73
20710;BME280;10516;51.518;9.864;2022-12-24T03:42:47;97973.44;;;6.74;99.99
20710;BME280;10516;51.518;9.864;2022-12-24T03:45:12;97968.88;;;6.70;99.58
20710;BME280;10516;51.518;9.864;2022-12-24T03:47:38;97963.56;;;6.70;99.33
20710;BME280;10516;51.518;9.864;2022-12-24T03:50:03;97966.16;;;6.65;98.95
20710;BME280;10516;51.518;9.864;2022-12-24T03:52:29;97967.25;;;6.69;99.22
20710;BME280;10516;51.518;9.864;2022-12-24T03:54:54;97978.75;;;6.74;99.00
20710;BME280;10516;51.518;9.864;2022-12-24T03:57:20;97971.69;;;6.63;98.54
20710;BME280;10516;51.518;9.864;2022-12-24T03:59:45;97974.41;;;6.68;98.85
20710;BME280;10516;51.518;9.864;2022-12-24T04:02:10;97978.28;;;6.61;99.42
20710;BME280;10516;51.518;9.864;2022-12-24T04:04:36;97977.63;;;6.70;98.90
20710;BME280;10516;51.518;9.864;2022-12-24T04:07:02;97977.56;;;6.65;98.88
20710;BME280;10516;51.518;9.864;2022-12-24T04:09:28;97983.88;;;6.64;99.83
20710;BME280;10516;51.518;9.864;2022-12-24T04:11:53;97955.59;;;6.48;99.02
20710;BME280;10516;51.518;9.864;2022-12-24T04:14:19;97984.22;;;6.68;98.67
20710;BME280;10516;51.518;9.864;2022-12-24T04:16:44;97970.34;;;6.61;99.07
20710;BME280;10516;51.518;9.864;2022-12-24T04:19:09;97975.84;;;6.76;98.83
20710;BME280;10516;51.518;9.864;2022-12-24T04:21:35;97981.31;;;6.69;99.62
20710;BME280;10516;51.518;9.864;2022-12-24T04:24:00;97973.78;;;6.61;99.26
20710;BME280;10516;51.518;9.864;2022-12-24T04:26:25;97979.41;;;6.65;98.97
20710;BME280;10516;51.518;9.864;2022-12-24T04:28:51;97987.28;;;6.60;98.11
20710;BME280;10516;51.518;9.864;2022-12-24T04:31:17;97989.88;;;6.55;98.75
20710;BME280;10516;51.518;9.864;2022-12-24T04:33:45;97984.56;;;6.55;98.68
20710;BME280;10516;51.518;9.864;2022-12-24T04:36:15;97998.94;;;6.59;98.45
20710;BME280;10516;51.518;9.864;2022-12-24T04:38:41;98002.22;;;6.49;99.01
20710;BME280;10516;51.518;9.864;2022-12-24T04:41:21;98010.19;;;6.49;99.25
20710;BME280;10516;51.518;9.864;2022-12-24T04:43:47;97998.38;;;6.40;99.52
20710;BME280;10516;51.518;9.864;2022-12-24T04:46:15;98004.56;;;6.46;98.86
20710;BME280;10516;51.518;9.864;2022-12-24T04:48:43;98020.97;;;6.43;99.23
20710;BME280;10516;51.518;9.864;2022-12-24T04:51:09;98012.19;;;6.42;98.55
20710;BME280;10516;51.518;9.864;2022-12-24T04:53:37;98023.59;;;6.43;98.49
20710;BME280;10516;51.518;9.864;2022-12-24T04:56:03;98019.19;;;6.32;99.00
20710;BME280;10516;51.518;9.864;2022-12-24T04:58:28;98016.63;;;6.37;99.17
20710;BME280;10516;51.518;9.864;2022-12-24T05:00:54;98018.88;;;6.45;97.90
20710;BME280;10516;51.518;9.864;2022-12-24T05:03:19;98027.06;;;6.43;98.57
20710;BME280;10516;51.518;9.864;2022-12-24T05:05:45;98022.09;;;6.30;98.19
20710;BME280;10516;51.518;9.864;2022-12-24T05:08:10;98043.84;;;6.32;98.57
20710;BME280;10516;51.518;9.864;2022-12-24T05:10:36;98048.84;;;6.29;98.90
20710;BME280;10516;51.518;9.864;2022-12-24T05:13:02;98060.47;;;6.28;98.98
20710;BME280;10516;51.518;9.864;2022-12-24T05:15:27;98057.34;;;6.31;98.61
20710;BME280;10516;51.518;9.864;2022-12-24T05:17:53;98051.97;;;6.26;98.57
20710;BME280;10516;51.518;9.864;2022-12-24T05:20:18;98066.47;;;6.23;98.78
20710;BME280;10516;51.518;9.864;2022-12-24T05:22:43;98069.53;;;6.32;98.85
20710;BME280;10516;51.518;9.864;2022-12-24T05:25:32;98072.19;;;6.32;98.55
20710;BME280;10516;51.518;9.864;2022-12-24T05:28:16;98074.03;;;6.31;98.25
20710;BME280;10516;51.518;9.864;2022-12-24T05:30:42;98081.09;;;6.26;97.86
20710;BME280;10516;51.518;9.864;2022-12-24T05:33:08;98087.06;;;6.33;98.35
20710;BME280;10516;51.518;9.864;2022-12-24T05:35:33;98082.94;;;6.25;97.96
20710;BME280;10516;51.518;9.864;2022-12-24T05:37:58;98086.00;;;6.17;99.22
20710;BME280;10516;51.518;9.864;2022-12-24T05:40:24;98083.66;;;6.21;98.14
20710;BME280;10516;51.518;9.864;2022-12-24T05:42:50;98088.31;;;6.14;98.15
20710;BME280;10516;51.518;9.864;2022-12-24T05:45:15;98099.25;;;6.17;97.84
20710;BME280;10516;51.518;9.864;2022-12-24T05:47:40;98094.91;;;6.11;98.06
20710;BME280;10516;51.518;9.864;2022-12-24T05:50:06;98092.00;;;6.13;98.78
20710;BME280;10516;51.518;9.864;2022-12-24T05:52:32;98090.72;;;6.15;98.03
20710;BME280;10516;51.518;9.864;2022-12-24T05:54:57;98096.19;;;6.09;98.73
20710;BME280;10516;51.518;9.864;2022-12-24T05:57:23;98097.44;;;6.06;97.66
20710;BME280;10516;51.518;9.864;2022-12-24T05:59:48;98098.56;;;6.10;98.45
20710;BME280;10516;51.518;9.864;2022-12-24T06:02:13;98101.88;;;6.17;98.10
20710;BME280;10516;51.518;9.864;2022-12-24T06:04:39;98093.28;;;6.10;97.53
20710;BME280;10516;51.518;9.864;2022-12-24T06:07:04;98096.78;;;5.99;97.45
20710;BME280;10516;51.518;9.864;2022-12-24T06:09:30;98096.88;;;6.04;98.37
20710;BME280;10516;51.518;9.864;2022-12-24T06:11:55;98111.50;;;6.07;98.16
20710;BME280;10516;51.518;9.864;2022-12-24T06:14:20;98120.00;;;6.09;97.90
20710;BME280;10516;51.518;9.864;2022-12-24T06:16:46;98124.19;;;6.04;97.97
20710;BME280;10516;51.518;9.864;2022-12-24T06:19:11;98116.25;;;6.04;98.10
20710;BME280;10516;51.518;9.864;2022-12-24T06:21:37;98125.31;;;6.09;97.67
20710;BME280;10516;51.518;9.864;2022-12-24T06:24:02;98125.50;;;6.19;97.53
20710;BME280;10516;51.518;9.864;2022-12-24T06:26:28;98112.34;;;5.95;97.19
20710;BME280;10516;51.518;9.864;2022-12-24T06:28:53;98113.03;;;6.02;97.84
20710;BME280;10516;51.518;9.864;2022-12-24T06:31:20;98123.75;;;5.96;98.30
20710;BME280;10516;51.518;9.864;2022-12-24T06:33:45;98111.16;;;6.03;97.96
20710;BME280;10516;51.518;9.864;2022-12-24T06:36:18;98111.97;;;6.03;97.72
20710;BME280;10516;51.518;9.864;2022-12-24T06:38:44;98122.28;;;6.17;97.66
20710;BME280;10516;51.518;9.864;2022-12-24T06:41:10;98134.50;;;6.18;97.59
20710;BME280;10516;51.518;9.864;2022-12-24T06:43:35;98130.13;;;6.12;97.49
20710;BME280;10516;51.518;9.864;2022-12-24T06:46:02;98120.44;;;6.17;97.20
20710;BME280;10516;51.518;9.864;2022-12-24T06:48:27;98126.41;;;6.24;97.01
20710;BME280;10516;51.518;9.864;2022-12-24T06:50:53;98139.22;;;6.16;97.01
20710;BME280;10516;51.518;9.864;2022-12-24T06:53:18;98135.00;;;6.03;97.68
20710;BME280;10516;51.518;9.864;2022-12-24T06:55:43;98153.88;;;6.07;97.94
20710;BME280;10516;51.518;9.864;2022-12-24T06:58:09;98150.66;;;6.04;98.42
20710;BME280;10516;51.518;9.864;2022-12-24T07:00:34;98156.16;;;6.15;97.74
20710;BME280;10516;51.518;9.864;2022-12-24T07:03:00;98169.63;;;6.13;97.50
20710;BME280;10516;51.518;9.864;2022-12-24T07:05:25;98146.50;;;6.09;97.89
20710;BME280;10516;51.518;9.864;2022-12-24T07:07:51;98167.72;;;6.25;97.00
20710;BME280;10516;51.518;9.864;2022-12-24T07:10:17;98170.66;;;6.40;96.73
20710;BME280;10516;51.518;9.864;2022-12-24T07:12:43;98167.41;;;6.50;96.36
20710;BME280;10516;51.518;9.864;2022-12-24T07:15:13;98170.47;;;6.58;95.53
20710;BME280;10516;51.518;9.864;2022-12-24T07:17:39;98163.38;;;6.47;95.61
20710;BME280;10516;51.518;9.864;2022-12-24T07:20:06;98169.56;;;6.53;96.18
20710;BME280;10516;51.518;9.864;2022-12-24T07:22:32;98169.94;;;6.45;95.69
20710;BME280;10516;51.518;9.864;2022-12-24T07:24:57;98181.22;;;6.52;96.40
20710;BME280;10516;51.518;9.864;2022-12-24T07:27:23;98193.75;;;6.73;96.21
20710;BME280;10516;51.518;9.864;2022-12-24T07:29:48;98189.81;;;6.59;95.64
20710;BME280;10516;51.518;9.864;2022-12-24T07:32:13;98180.75;;;6.55;95.47
20710;BME280;10516;51.518;9.864;2022-12-24T07:34:39;98213.19;;;6.62;96.17
20710;BME280;10516;51.518;9.864;2022-12-24T07:37:05;98203.63;;;6.44;95.94
20710;BME280;10516;51.518;9.864;2022-12-24T07:39:31;98210.25;;;6.75;95.90
20710;BME280;10516;51.518;9.864;2022-12-24T07:41:56;98216.59;;;6.57;95.30
20710;BME280;10516;51.518;9.864;2022-12-24T07:44:22;98217.75;;;6.50;95.58
20710;BME280;10516;51.518;9.864;2022-12-24T07:46:47;98222.22;;;6.33;96.85
20710;BME280;10516;51.518;9.864;2022-12-24T07:49:12;98225.31;;;6.30;97.43
20710;BME280;10516;51.518;9.864;2022-12-24T07:51:38;98216.41;;;6.36;97.03
20710;BME280;10516;51.518;9.864;2022-12-24T07:54:03;98226.13;;;6.30;97.18
20710;BME280;10516;51.518;9.864;2022-12-24T07:56:30;98226.41;;;6.17;97.36
20710;BME280;10516;51.518;9.864;2022-12-24T07:58:55;98231.47;;;6.19;97.39
20710;BME280;10516;51.518;9.864;2022-12-24T08:01:21;98239.41;;;6.19;98.31
20710;BME280;10516;51.518;9.864;2022-12-24T08:03:46;98240.56;;;6.23;98.42
20710;BME280;10516;51.518;9.864;2022-12-24T08:06:12;98238.28;;;6.15;98.08
20710;BME280;10516;51.518;9.864;2022-12-24T08:08:37;98236.19;;;6.17;98.22
20710;BME280;10516;51.518;9.864;2022-12-24T08:11:05;98243.06;;;6.29;97.69
20710;BME280;10516;51.518;9.864;2022-12-24T08:13:31;98244.69;;;6.30;97.64
20710;BME280;10516;51.518;9.864;2022-12-24T08:15:57;98253.63;;;6.41;96.99
20710;BME280;10516;51.518;9.864;2022-12-24T08:18:23;98240.47;;;6.46;97.31
20710;BME280;10516;51.518;9.864;2022-12-24T08:20:48;98247.91;;;6.60;96.86
20710;BME280;10516;51.518;9.864;2022-12-24T08:23:14;98258.38;;;6.39;97.17
20710;BME280;10516;51.518;9.864;2022-12-24T08:25:44;98242.88;;;6.47;97.10
20710;BME280;10516;51.518;9.864;2022-12-24T08:28:10;98259.59;;;6.48;96.63
20710;BME280;10516;51.518;9.864;2022-12-24T08:30:35;98268.13;;;6.50;97.30
20710;BME280;10516;51.518;9.864;2022-12-24T08:33:01;98266.88;;;6.41;97.60
20710;BME280;10516;51.518;9.864;2022-12-24T08:35:27;98258.94;;;6.41;97.35
20710;BME280;10516;51.518;9.864;2022-12-24T08:37:52;98262.25;;;6.48;98.01
20710;BME280;10516;51.518;9.864;2022-12-24T08:40:18;98266.63;;;6.42;97.90
20710;BME280;10516;51.518;9.864;2022-12-24T08:42:43;98259.41;;;6.38;98.12
20710;BME280;10516;51.518;9.864;2022-12-24T08:45:09;98260.34;;;6.32;98.35
20710;BME280;10516;51.518;9.864;2022-12-24T08:47:36;98258.75;;;6.31;97.98
20710;BME280;10516;51.518;9.864;2022-12-24T08:50:02;98276.47;;;6.42;98.10
20710;BME280;10516;51.518;9.864;2022-12-24T08:52:27;98283.72;;;6.46;98.55
20710;BME280;10516;51.518;9.864;2022-12-24T08:54:53;98284.50;;;6.47;97.83
20710;BME280;10516;51.518;9.864;2022-12-24T08:57:18;98295.84;;;6.70;97.67
20710;BME280;10516;51.518;9.864;2022-12-24T08:59:44;98293.66;;;6.67;97.00
20710;BME280;10516;51.518;9.864;2022-12-24T09:02:09;98308.66;;;6.62;97.29
20710;BME280;10516;51.518;9.864;2022-12-24T09:04:39;98295.91;;;6.75;97.12
20710;BME280;10516;51.518;9.864;2022-12-24T09:07:06;98300.78;;;6.67;97.84
20710;BME280;10516;51.518;9.864;2022-12-24T09:09:31;98300.78;;;6.67;97.10
20710;BME280;10516;51.518;9.864;2022-12-24T09:11:57;98305.28;;;6.66;97.54
20710;BME280;10516;51.518;9.864;2022-12-24T09:14:24;98310.59;;;6.66;97.51
20710;BME280;10516;51.518;9.864;2022-12-24T09:16:49;98307.00;;;6.72;97.31
20710;BME280;10516;51.518;9.864;2022-12-24T09:19:15;98308.34;;;6.75;97.57
20710;BME280;10516;51.518;9.864;2022-12-24T09:21:40;98326.50;;;6.66;97.79
20710;BME280;10516;51.518;9.864;2022-12-24T09:24:05;98331.91;;;6.71;97.61
20710;BME280;10516;51.518;9.864;2022-12-24T09:26:31;98333.41;;;6.79;97.73
20710;BME280;10516;51.518;9.864;2022-12-24T09:28:57;98328.56;;;6.76;97.59
20710;BME280;10516;51.518;9.864;2022-12-24T09:31:25;98349.50;;;6.89;97.27
20710;BME280;10516;51.518;9.864;2022-12-24T09:33:51;98341.28;;;6.91;96.66
20710;BME280;10516;51.518;9.864;2022-12-24T09:36:17;98346.97;;;6.82;97.61
20710;BME280;10516;51.518;9.864;2022-12-24T09:38:43;98344.59;;;6.98;98.08
20710;BME280;10516;51.518;9.864;2022-12-24T09:41:14;98363.75;;;7.00;97.09
20710;BME280;10516;51.518;9.864;2022-12-24T09:43:45;98362.22;;;7.04;97.75
20710;BME280;10516;51.518;9.864;2022-12-24T09:48:58;98370.19;;;7.04;97.71
20710;BME280;10516;51.518;9.864;2022-12-24T09:51:41;98370.72;;;7.17;96.26
20710;BME280;10516;51.518;9.864;2022-12-24T09:54:17;98365.00;;;6.97;97.31
20710;BME280;10516;51.518;9.864;2022-12-24T09:56:47;98370.31;;;6.97;98.49
20710;BME280;10516;51.518;9.864;2022-12-24T09:59:20;98370.56;;;6.96;98.80
20710;BME280;10516;51.518;9.864;2022-12-24T10:01:48;98370.88;;;6.99;98.07
20710;BME280;10516;51.518;9.864;2022-12-24T10:04:18;98384.00;;;7.06;97.87
20710;BME280;10516;51.518;9.864;2022-12-24T10:06:52;98371.91;;;7.10;97.64
20710;BME280;10516;51.518;9.864;2022-12-24T10:12:05;98381.88;;;7.19;97.95
20710;BME280;10516;51.518;9.864;2022-12-24T10:28:31;98388.19;;;7.30;96.72
20710;BME280;10516;51.518;9.864;2022-12-24T10:31:02;98382.09;;;7.29;97.18
20710;BME280;10516;51.518;9.864;2022-12-24T10:33:33;98382.44;;;7.21;96.77
20710;BME280;10516;51.518;9.864;2022-12-24T10:36:00;98380.56;;;7.33;96.85
20710;BME280;10516;51.518;9.864;2022-12-24T10:38:25;98388.59;;;7.38;96.57
20710;BME280;10516;51.518;9.864;2022-12-24T10:40:53;98394.16;;;7.37;97.05
20710;BME280;10516;51.518;9.864;2022-12-24T10:43:23;98393.13;;;7.38;96.39
20710;BME280;10516;51.518;9.864;2022-12-24T10:45:59;98386.72;;;7.22;97.92
20710;BME280;10516;51.518;9.864;2022-12-24T10:48:37;98414.56;;;7.36;96.93
20710;BME280;10516;51.518;9.864;2022-12-24T10:51:12;98409.94;;;7.43;96.67
20710;BME280;10516;51.518;9.864;2022-12-24T10:53:44;98410.75;;;7.44;97.06
20710;BME280;10516;51.518;9.864;2022-12-24T10:56:14;98406.56;;;7.48;96.00
20710;BME280;10516;51.518;9.864;2022-12-24T10:58:52;98411.72;;;7.54;95.78
20710;BME280;10516;51.518;9.864;2022-12-24T11:01:41;98409.69;;;7.45;96.40
20710;BME280;10516;51.518;9.864;2022-12-24T11:04:04;98424.44;;;7.52;96.03
20710;BME280;10516;51.518;9.864;2022-12-24T11:06:29;98417.28;;;7.53;95.63
20710;BME280;10516;51.518;9.864;2022-12-24T11:09:12;98426.53;;;7.50;95.96
20710;BME280;10516;51.518;9.864;2022-12-24T11:11:44;98434.00;;;7.53;96.19
20710;BME280;10516;51.518;9.864;2022-12-24T11:14:14;98433.44;;;7.51;96.13
20710;BME280;10516;51.518;9.864;2022-12-24T11:16:48;98424.34;;;7.47;96.42
20710;BME280;10516;51.518;9.864;2022-12-24T11:19:17;98425.72;;;7.50;96.26
20710;BME280;10516;51.518;9.864;2022-12-24T11:21:43;98436.19;;;7.56;95.45
20710;BME280;10516;51.518;9.864;2022-12-24T11:26:38;98431.03;;;7.50;96.03
20710;BME280;10516;51.518;9.864;2022-12-24T11:31:44;98441.22;;;7.41;96.97
20710;BME280;10516;51.518;9.864;2022-12-24T11:34:26;98434.16;;;7.47;97.19
20710;BME280;10516;51.518;9.864;2022-12-24T11:37:16;98427.25;;;7.46;97.07
20710;BME280;10516;51.518;9.864;2022-12-24T11:39:44;98418.47;;;7.45;97.96
20710;BME280;10516;51.518;9.864;2022-12-24T11:44:54;98424.28;;;7.59;97.66
20710;BME280;10516;51.518;9.864;2022-12-24T11:47:37;98420.25;;;7.56;97.92
20710;BME280;10516;51.518;9.864;2022-12-24T11:50:37;98414.38;;;7.54;96.73
20710;BME280;10516;51.518;9.864;2022-12-24T12:00:25;98420.03;;;7.91;96.90
20710;BME280;10516;51.518;9.864;2022-12-24T12:02:54;98419.47;;;7.89;96.79
20710;BME280;10516;51.518;9.864;2022-12-24T12:05:25;98407.22;;;8.05;95.85
20710;BME280;10516;51.518;9.864;2022-12-24T12:07:55;98423.25;;;8.10;95.29
20710;BME280;10516;51.518;9.864;2022-12-24T12:10:31;98414.09;;;8.01;96.21
20710;BME280;10516;51.518;9.864;2022-12-24T12:13:23;98403.44;;;8.01;95.46
20710;BME280;10516;51.518;9.864;2022-12-24T12:16:51;98419.47;;;8.22;94.59
20710;BME280;10516;51.518;9.864;2022-12-24T12:18:53;98435.31;;;8.17;94.86
20710;BME280;10516;51.518;9.864;2022-12-24T12:21:24;98433.94;;;8.15;95.63
20710;BME280;10516;51.518;9.864;2022-12-24T12:24:21;98434.38;;;8.40;93.39
20710;BME280;10516;51.518;9.864;2022-12-24T12:27:03;98431.97;;;8.39;93.60
20710;BME280;10516;51.518;9.864;2022-12-24T12:29:41;98427.44;;;8.39;94.02
20710;BME280;10516;51.518;9.864;2022-12-24T12:32:24;98435.69;;;8.59;93.71
20710;BME280;10516;51.518;9.864;2022-12-24T12:35:00;98438.38;;;8.59;93.09
20710;BME280;10516;51.518;9.864;2022-12-24T12:37:41;98455.78;;;8.50;93.16
20710;BME280;10516;51.518;9.864;2022-12-24T12:40:13;98447.00;;;8.50;93.18
20710;BME280;10516;51.518;9.864;2022-12-24T12:42:47;98442.09;;;8.42;92.86
20710;BME280;10516;51.518;9.864;2022-12-24T12:45:46;98444.34;;;8.50;91.96
20710;BME280;10516;51.518;9.864;2022-12-24T12:56:49;98458.44;;;8.17;92.33
20710;BME280;10516;51.518;9.864;2022-12-24T12:59:29;98459.75;;;8.14;93.36
20710;BME280;10516;51.518;9.864;2022-12-24T13:02:17;98477.22;;;8.10;93.96
20710;BME280;10516;51.518;9.864;2022-12-24T13:05:08;98468.84;;;8.02;94.27
20710;BME280;10516;51.518;9.864;2022-12-24T13:16:11;98492.59;;;7.92;93.99
20710;BME280;10516;51.518;9.864;2022-12-24T13:21:41;98498.47;;;7.94;93.39
20710;BME280;10516;51.518;9.864;2022-12-24T13:24:27;98501.13;;;8.10;93.86
20710;BME280;10516;51.518;9.864;2022-12-24T13:27:10;98499.44;;;8.04;93.81
20710;BME280;10516;51.518;9.864;2022-12-24T13:29:58;98517.66;;;8.12;93.74
20710;BME280;10516;51.518;9.864;2022-12-24T13:34:51;98520.63;;;8.16;93.43
20710;BME280;10516;51.518;9.864;2022-12-24T13:37:43;98513.63;;;8.10;93.45
20710;BME280;10516;51.518;9.864;2022-12-24T13:48:13;98527.06;;;8.32;92.90
20710;BME280;10516;51.518;9.864;2022-12-24T13:50:49;98545.72;;;8.37;91.82
20710;BME280;10516;51.518;9.864;2022-12-24T13:53:37;98538.78;;;8.19;92.52
20710;BME280;10516;51.518;9.864;2022-12-24T13:56:08;98541.16;;;8.32;92.61
20710;BME280;10516;51.518;9.864;2022-12-24T13:58:36;98537.69;;;8.32;93.29
20710;BME280;10516;51.518;9.864;2022-12-24T14:01:14;98547.25;;;8.32;91.88
20710;BME280;10516;51.518;9.864;2022-12-24T14:03:43;98531.03;;;8.17;92.06
20710;BME280;10516;51.518;9.864;2022-12-24T14:06:20;98533.09;;;8.27;92.13
20710;BME280;10516;51.518;9.864;2022-12-24T14:08:49;98540.81;;;8.28;92.14
20710;BME280;10516;51.518;9.864;2022-12-24T14:11:19;98542.56;;;8.23;92.40
20710;BME280;10516;51.518;9.864;2022-12-24T14:16:13;98547.53;;;8.19;92.79
20710;BME280;10516;51.518;9.864;2022-12-24T14:18:46;98549.06;;;8.15;92.92
20710;BME280;10516;51.518;9.864;2022-12-24T14:21:24;98538.97;;;8.29;92.74
20710;BME280;10516;51.518;9.864;2022-12-24T14:24:05;98530.81;;;8.19;93.02
20710;BME280;10516;51.518;9.864;2022-12-24T14:26:48;98540.50;;;8.42;92.03
20710;BME280;10516;51.518;9.864;2022-12-24T14:29:32;98544.97;;;8.24;93.70
20710;BME280;10516;51.518;9.864;2022-12-24T14:32:01;98547.13;;;8.11;93.81
20710;BME280;10516;51.518;9.864;2022-12-24T14:34:29;98556.06;;;8.05;93.77
20710;BME280;10516;51.518;9.864;2022-12-24T14:36:56;98565.66;;;8.06;93.85
20710;BME280;10516;51.518;9.864;2022-12-24T14:42:11;98580.56;;;7.79;93.80
20710;BME280;10516;51.518;9.864;2022-12-24T14:53:04;98580.31;;;7.80;94.59
20710;BME280;10516;51.518;9.864;2022-12-24T14:55:39;98578.63;;;7.63;94.22
20710;BME280;10516;51.518;9.864;2022-12-24T14:58:24;98579.69;;;7.62;94.40